Time;durP1;ratioP1;P1;durP2;ratioP2;P2;SDS_P1;SDS_P2;PMS_P1;PMS_P2;Temp;Humidity;BMP_temperature;BMP_pressure;BME280_temperature;BME280_humidity;BME280_pressure;Samples;Min_cycle;Max_cycle;Signal;HPM_P1;HPM_P2
2021/11/16 00:01:08;;;;;;;23.15;12.95;;;6.30;99.90;;;;;;5089421;28;20423;-55
2021/11/16 00:03:34;;;;;;;24.83;14.40;;;6.30;99.90;;;;;;5090922;28;20689;-55
2021/11/16 00:06:00;;;;;;;25.38;13.55;;;6.30;99.90;;;;;;5089575;28;20095;-58
2021/11/16 00:08:26;;;;;;;26.48;14.00;;;6.30;99.90;;;;;;5085670;28;20024;-58
2021/11/16 00:10:52;;;;;;;29.50;14.68;;;6.30;99.90;;;;;;5090971;28;20050;-57
2021/11/16 00:13:17;;;;;;;23.42;13.35;;;6.20;99.90;;;;;;5090925;28;20199;-58
2021/11/16 00:15:44;;;;;;;22.80;12.48;;;6.20;99.90;;;;;;5091222;28;20024;-60
2021/11/16 00:18:11;;;;;;;24.05;13.07;;;6.20;99.90;;;;;;5086450;28;20566;-55
2021/11/16 00:20:42;;;;;;;27.08;13.82;;;6.20;99.90;;;;;;5089879;28;20027;-57
2021/11/16 00:23:15;;;;;;;20.15;10.63;;;6.20;99.90;;;;;;5089784;28;20020;-56
2021/11/16 00:25:41;;;;;;;22.58;11.75;;;6.20;99.90;;;;;;5090718;28;20024;-56
2021/11/16 00:28:06;;;;;;;23.98;12.02;;;6.20;99.90;;;;;;5090789;28;20032;-57
2021/11/16 00:30:32;;;;;;;19.63;11.75;;;6.20;99.90;;;;;;5086523;28;20032;-59
2021/11/16 00:32:57;;;;;;;19.60;10.73;;;6.20;99.90;;;;;;5085252;28;20507;-55
2021/11/16 00:35:23;;;;;;;19.45;11.52;;;6.20;99.90;;;;;;5091227;28;20031;-59
2021/11/16 00:37:49;;;;;;;23.55;12.35;;;6.20;99.90;;;;;;5091009;28;20025;-57
2021/11/16 00:40:19;;;;;;;24.63;11.10;;;6.20;99.90;;;;;;5091080;28;20060;-58
2021/11/16 00:42:46;;;;;;;22.20;11.48;;;6.20;99.90;;;;;;5083474;28;20016;-58
2021/11/16 00:45:13;;;;;;;23.75;12.43;;;6.20;99.90;;;;;;5089170;28;20104;-58
2021/11/16 00:47:40;;;;;;;20.25;11.82;;;6.20;99.90;;;;;;5082453;28;20016;-58
2021/11/16 00:50:06;;;;;;;25.20;12.68;;;6.20;99.90;;;;;;5086850;28;20518;-59
2021/11/16 00:52:33;;;;;;;18.55;11.15;;;6.20;99.90;;;;;;5085683;28;20028;-56
2021/11/16 00:54:58;;;;;;;19.58;11.82;;;6.20;99.90;;;;;;5078048;28;20109;-55
2021/11/16 00:57:24;;;;;;;21.23;11.75;;;6.20;99.90;;;;;;5081330;28;20677;-55
2021/11/16 00:59:50;;;;;;;21.85;11.82;;;6.20;99.90;;;;;;5079688;28;20024;-58
2021/11/16 01:02:16;;;;;;;24.83;11.68;;;6.20;99.90;;;;;;5079253;28;20028;-57
2021/11/16 01:04:48;;;;;;;23.80;11.93;;;6.20;99.90;;;;;;5071637;28;20017;-57
2021/11/16 01:07:15;;;;;;;24.27;12.55;;;6.10;99.90;;;;;;5060068;28;20111;-56
2021/11/16 01:09:40;;;;;;;26.00;12.30;;;6.10;99.90;;;;;;5081186;28;20077;-58
2021/11/16 01:12:07;;;;;;;26.05;11.90;;;6.10;99.90;;;;;;5090359;28;20402;-56
2021/11/16 01:14:32;;;;;;;22.17;10.93;;;6.10;99.90;;;;;;5089114;28;20032;-57
2021/11/16 01:16:59;;;;;;;25.05;12.15;;;6.10;99.90;;;;;;5089617;28;20701;-60
2021/11/16 01:19:24;;;;;;;22.17;12.27;;;6.20;99.90;;;;;;5087294;28;20035;-56
2021/11/16 01:21:50;;;;;;;23.55;11.70;;;6.20;99.90;;;;;;5090400;28;20020;-54
2021/11/16 01:24:16;;;;;;;23.27;11.80;;;6.20;99.90;;;;;;5090266;28;20032;-58
2021/11/16 01:26:45;;;;;;;21.75;12.13;;;6.20;99.90;;;;;;5084212;28;20053;-59
2021/11/16 01:29:11;;;;;;;22.05;11.63;;;6.20;99.90;;;;;;5082202;28;20035;-59
2021/11/16 01:31:37;;;;;;;25.55;13.30;;;6.20;99.90;;;;;;5084219;28;20032;-58
2021/11/16 01:34:05;;;;;;;21.38;11.95;;;6.20;99.90;;;;;;5083654;28;20562;-58
2021/11/16 01:36:31;;;;;;;22.02;11.00;;;6.20;99.90;;;;;;5087041;28;20027;-59
2021/11/16 01:38:58;;;;;;;22.73;12.15;;;6.20;99.90;;;;;;5090272;28;20077;-58
2021/11/16 01:41:25;;;;;;;21.25;11.43;;;6.20;99.90;;;;;;5089730;28;20119;-60
2021/11/16 01:43:52;;;;;;;22.17;11.95;;;6.20;99.90;;;;;;5090169;28;20036;-56
2021/11/16 01:46:18;;;;;;;22.10;12.43;;;6.20;99.90;;;;;;5089706;28;20106;-59
2021/11/16 01:48:49;;;;;;;25.73;12.88;;;6.20;99.90;;;;;;5075066;28;20020;-56
2021/11/16 01:51:15;;;;;;;23.35;12.07;;;6.20;99.90;;;;;;5084759;28;20459;-58
2021/11/16 01:53:42;;;;;;;23.95;12.13;;;6.20;99.90;;;;;;5082892;28;20012;-54
2021/11/16 01:56:09;;;;;;;22.80;11.90;;;6.10;99.90;;;;;;5084367;28;20119;-60
2021/11/16 01:58:34;;;;;;;21.85;11.98;;;6.20;99.90;;;;;;5081887;28;20028;-58
2021/11/16 02:01:03;;;;;;;21.02;11.68;;;6.20;99.90;;;;;;5081958;28;20046;-57
2021/11/16 02:03:29;;;;;;;25.20;13.60;;;6.20;99.90;;;;;;5078489;28;20271;-57
2021/11/16 02:06:12;;;;;;;19.52;10.75;;;6.10;99.90;;;;;;5073018;28;20033;-59
2021/11/16 02:08:38;;;;;;;23.50;11.88;;;6.10;99.90;;;;;;5073692;28;20028;-58
2021/11/16 02:11:04;;;;;;;27.25;13.98;;;6.10;99.90;;;;;;5074948;28;20059;-60
2021/11/16 02:13:29;;;;;;;30.42;16.50;;;6.10;99.90;;;;;;5077136;28;20077;-57
2021/11/16 02:15:55;;;;;;;29.83;15.52;;;6.10;99.90;;;;;;5087071;28;20396;-57
2021/11/16 02:18:21;;;;;;;31.15;15.85;;;6.10;99.90;;;;;;5081728;28;20060;-59
2021/11/16 02:20:51;;;;;;;33.28;16.00;;;6.10;99.90;;;;;;5082709;28;20390;-56
2021/11/16 02:23:18;;;;;;;30.05;14.73;;;6.10;99.90;;;;;;5090264;28;20031;-58
2021/11/16 02:25:45;;;;;;;28.60;14.20;;;6.10;99.90;;;;;;5088954;28;20021;-58
2021/11/16 02:28:14;;;;;;;29.33;16.13;;;6.20;99.90;;;;;;5090047;28;20024;-58
2021/11/16 02:30:40;;;;;;;34.08;16.23;;;6.20;99.90;;;;;;5089884;28;20016;-58
2021/11/16 02:33:06;;;;;;;29.52;14.88;;;6.10;99.90;;;;;;5089721;28;20501;-58
2021/11/16 02:35:31;;;;;;;30.50;15.02;;;6.10;99.90;;;;;;5089906;28;20044;-57
2021/11/16 02:37:58;;;;;;;31.17;15.93;;;6.10;99.90;;;;;;5089796;28;20016;-56
2021/11/16 02:40:25;;;;;;;31.60;16.52;;;6.10;99.90;;;;;;5090024;28;20489;-59
2021/11/16 02:42:50;;;;;;;33.13;17.13;;;6.10;99.90;;;;;;5086233;28;20044;-58
2021/11/16 02:45:17;;;;;;;30.35;15.05;;;6.10;99.90;;;;;;5086980;28;20500;-58
2021/11/16 02:47:43;;;;;;;31.58;16.73;;;6.10;99.90;;;;;;5083954;28;20024;-59
2021/11/16 02:50:09;;;;;;;29.73;15.20;;;6.10;99.90;;;;;;5085038;28;20073;-57
2021/11/16 02:52:36;;;;;;;26.50;14.40;;;6.10;99.90;;;;;;5089733;28;20477;-59
2021/11/16 02:55:02;;;;;;;22.55;12.80;;;6.10;99.90;;;;;;5089668;28;20013;-58
2021/11/16 02:57:27;;;;;;;24.42;13.13;;;6.10;99.90;;;;;;5089388;28;20538;-59
2021/11/16 02:59:53;;;;;;;24.38;13.20;;;6.10;99.90;;;;;;5089295;28;20028;-59
2021/11/16 03:02:19;;;;;;;24.13;12.27;;;6.00;99.90;;;;;;5088751;28;20078;-56
2021/11/16 03:04:46;;;;;;;23.02;12.02;;;6.00;99.90;;;;;;5089242;28;20024;-58
2021/11/16 03:07:14;;;;;;;23.20;11.63;;;6.00;99.90;;;;;;5092384;28;20502;-58
2021/11/16 03:09:48;;;;;;;24.92;12.13;;;6.00;99.90;;;;;;5090056;28;20024;-57
2021/11/16 03:12:14;;;;;;;25.58;12.60;;;6.00;99.90;;;;;;5081226;28;20020;-57
2021/11/16 03:14:40;;;;;;;21.38;11.30;;;6.00;99.90;;;;;;5086915;28;20082;-58
2021/11/16 03:17:06;;;;;;;18.65;9.73;;;6.00;99.90;;;;;;5081327;28;20032;-58
2021/11/16 03:19:33;;;;;;;19.67;10.73;;;6.00;99.90;;;;;;5092740;28;20348;-58
2021/11/16 03:21:59;;;;;;;21.38;10.65;;;6.00;99.90;;;;;;5092602;28;20012;-58
2021/11/16 03:24:33;;;;;;;18.17;11.07;;;6.00;99.90;;;;;;5090411;28;20066;-54
2021/11/16 03:27:02;;;;;;;22.08;11.65;;;6.00;99.90;;;;;;5087727;28;20032;-55
2021/11/16 03:29:31;;;;;;;20.00;10.25;;;6.00;99.90;;;;;;5086754;28;20032;-60
2021/11/16 03:32:09;;;;;;;17.27;10.02;;;6.00;99.90;;;;;;5092389;28;20109;-59
2021/11/16 03:34:35;;;;;;;20.55;11.18;;;6.00;99.90;;;;;;5091099;28;20035;-58
2021/11/16 03:37:02;;;;;;;18.77;10.50;;;6.00;99.90;;;;;;5092487;28;20024;-60
2021/11/16 03:39:27;;;;;;;15.93;9.02;;;6.00;99.90;;;;;;5092306;28;20025;-60
2021/11/16 03:41:54;;;;;;;20.05;10.35;;;6.10;99.90;;;;;;5092731;28;20031;-60
2021/11/16 03:44:20;;;;;;;19.77;10.35;;;6.00;99.90;;;;;;5092081;28;20028;-60
2021/11/16 03:46:45;;;;;;;20.17;10.45;;;6.00;99.90;;;;;;5081867;28;20082;-60
2021/11/16 03:49:13;;;;;;;19.10;9.15;;;6.00;99.90;;;;;;5087445;28;20373;-59
2021/11/16 03:51:40;;;;;;;15.77;9.57;;;6.00;99.90;;;;;;5086908;28;20020;-59
2021/11/16 03:54:07;;;;;;;24.50;11.23;;;6.00;99.90;;;;;;5089957;28;20093;-58
2021/11/16 03:56:34;;;;;;;26.83;11.73;;;6.00;99.90;;;;;;5084444;28;20067;-58
2021/11/16 03:58:59;;;;;;;21.80;11.00;;;6.00;99.90;;;;;;5081692;28;20427;-59
2021/11/16 04:01:25;;;;;;;24.60;12.65;;;6.10;99.90;;;;;;5079263;28;20021;-59
2021/11/16 04:03:52;;;;;;;22.88;11.43;;;6.10;99.90;;;;;;5084929;28;20074;-60
2021/11/16 04:06:19;;;;;;;20.52;10.77;;;6.10;99.90;;;;;;5088504;28;20024;-58
2021/11/16 04:08:45;;;;;;;22.77;11.98;;;6.10;99.90;;;;;;5086504;28;20024;-60
2021/11/16 04:11:11;;;;;;;24.13;11.93;;;6.10;99.90;;;;;;5086883;28;20028;-59
2021/11/16 04:13:37;;;;;;;26.27;12.80;;;6.10;99.90;;;;;;5083663;28;20020;-59
2021/11/16 04:16:03;;;;;;;22.77;11.77;;;6.10;99.90;;;;;;5086797;28;20056;-59
2021/11/16 04:18:29;;;;;;;21.52;12.05;;;6.00;99.90;;;;;;5085362;28;20020;-59
2021/11/16 04:20:55;;;;;;;21.42;11.23;;;6.00;99.90;;;;;;5089925;28;20024;-60
2021/11/16 04:23:22;;;;;;;22.17;11.30;;;6.00;99.90;;;;;;5084832;28;20019;-59
2021/11/16 04:25:49;;;;;;;26.45;11.55;;;6.00;99.90;;;;;;5088469;28;20028;-59
2021/11/16 04:28:16;;;;;;;27.23;12.25;;;6.00;99.90;;;;;;5088283;28;20158;-59
2021/11/16 04:30:43;;;;;;;22.52;12.32;;;6.00;99.90;;;;;;5083278;28;20435;-59
2021/11/16 04:33:09;;;;;;;22.50;12.07;;;6.00;99.90;;;;;;5087684;28;20115;-57
2021/11/16 04:35:35;;;;;;;22.67;11.80;;;6.00;99.90;;;;;;5084057;28;20650;-60
2021/11/16 04:38:03;;;;;;;22.25;11.10;;;6.00;99.90;;;;;;5083319;28;20027;-59
2021/11/16 04:40:35;;;;;;;24.17;12.27;;;5.90;99.90;;;;;;5083964;28;20031;-58
2021/11/16 04:43:04;;;;;;;24.05;11.80;;;5.90;99.90;;;;;;5083710;28;20030;-57
2021/11/16 04:45:30;;;;;;;19.17;11.32;;;5.90;99.90;;;;;;5086454;28;20044;-59
2021/11/16 04:48:02;;;;;;;23.52;12.77;;;5.90;99.90;;;;;;5091330;28;20417;-58
2021/11/16 04:55:48;;;;;;;23.83;11.57;;;6.00;99.90;;;;;;5078693;28;20020;-59
2021/11/16 05:03:46;;;;;;;25.13;11.98;;;6.00;99.90;;;;;;5076787;28;20069;-57
2021/11/16 05:06:12;;;;;;;27.55;12.52;;;6.00;99.90;;;;;;5083623;28;20020;-59
2021/11/16 05:08:40;;;;;;;21.55;11.38;;;6.00;99.90;;;;;;5082735;28;20404;-59
2021/11/16 05:11:07;;;;;;;20.10;10.73;;;5.90;99.90;;;;;;5083738;28;20036;-59
2021/11/16 05:13:33;;;;;;;21.88;11.38;;;6.00;99.90;;;;;;5088167;28;20400;-59
2021/11/16 05:15:59;;;;;;;18.05;10.10;;;6.00;99.90;;;;;;5081951;28;20035;-60
2021/11/16 05:18:24;;;;;;;20.13;11.23;;;5.90;99.90;;;;;;5063355;28;20032;-58
2021/11/16 05:20:50;;;;;;;20.33;10.70;;;6.00;99.90;;;;;;5090551;28;20085;-60
2021/11/16 05:23:17;;;;;;;24.10;11.00;;;6.00;99.90;;;;;;5085769;28;20036;-58
2021/11/16 05:25:52;;;;;;;22.13;11.65;;;6.00;99.90;;;;;;5081253;28;20488;-60
2021/11/16 05:28:19;;;;;;;19.63;10.23;;;6.00;99.90;;;;;;5076987;28;20450;-59
2021/11/16 05:30:46;;;;;;;21.90;11.82;;;6.00;99.90;;;;;;5084418;28;20020;-60
2021/11/16 05:33:11;;;;;;;23.95;11.80;;;6.00;99.90;;;;;;5087401;28;20020;-58
2021/11/16 05:35:37;;;;;;;25.25;13.63;;;5.90;99.90;;;;;;5088242;28;20043;-59
2021/11/16 05:38:03;;;;;;;25.65;12.77;;;5.90;99.90;;;;;;5083670;28;20028;-59
2021/11/16 05:40:28;;;;;;;23.40;11.98;;;5.90;99.90;;;;;;5089323;28;20107;-60
2021/11/16 05:42:54;;;;;;;23.85;11.38;;;5.90;99.90;;;;;;5088776;28;20126;-60
2021/11/16 05:45:20;;;;;;;23.13;11.55;;;5.90;99.90;;;;;;5087474;28;20024;-60
2021/11/16 05:47:46;;;;;;;22.63;10.75;;;5.90;99.90;;;;;;5084252;28;20175;-59
2021/11/16 05:50:14;;;;;;;22.17;11.27;;;5.90;99.90;;;;;;5089434;28;20031;-60
2021/11/16 05:52:40;;;;;;;23.73;12.10;;;5.90;99.90;;;;;;5086122;28;20401;-57
2021/11/16 05:55:08;;;;;;;22.92;11.45;;;6.00;99.90;;;;;;5083151;28;20028;-60
2021/11/16 05:57:34;;;;;;;20.15;10.90;;;6.00;99.90;;;;;;5077601;28;20027;-57
2021/11/16 06:00:00;;;;;;;24.08;11.98;;;6.10;99.90;;;;;;5081526;28;20509;-59
2021/11/16 06:02:25;;;;;;;20.48;9.98;;;6.10;99.90;;;;;;5080734;28;20062;-59
2021/11/16 06:04:51;;;;;;;20.70;11.13;;;6.10;99.90;;;;;;5078043;28;20048;-58
2021/11/16 06:07:17;;;;;;;23.63;11.05;;;6.10;99.90;;;;;;5085239;28;20207;-59
2021/11/16 06:09:43;;;;;;;24.15;11.88;;;6.10;99.90;;;;;;5088993;28;20111;-59
2021/11/16 06:12:09;;;;;;;21.65;10.52;;;6.10;99.90;;;;;;5082601;28;20024;-59
2021/11/16 06:14:35;;;;;;;24.58;12.40;;;6.10;99.90;;;;;;5079694;28;20500;-58
2021/11/16 06:17:01;;;;;;;23.92;12.23;;;6.00;99.90;;;;;;5085588;28;20024;-59
2021/11/16 06:19:29;;;;;;;23.65;11.55;;;6.00;99.90;;;;;;5084903;28;20093;-59
2021/11/16 06:21:54;;;;;;;28.80;14.02;;;6.00;99.90;;;;;;5081401;28;20082;-58
2021/11/16 06:24:20;;;;;;;20.05;11.10;;;5.90;99.90;;;;;;5074584;28;20063;-58
2021/11/16 06:26:46;;;;;;;29.48;14.00;;;5.90;99.90;;;;;;5076688;28;20733;-56
2021/11/16 06:29:12;;;;;;;23.00;12.20;;;5.90;99.90;;;;;;5084766;28;20048;-59
2021/11/16 06:31:37;;;;;;;25.60;11.70;;;6.00;99.90;;;;;;5084924;28;20032;-59
2021/11/16 06:34:05;;;;;;;25.77;12.80;;;6.00;99.90;;;;;;5086002;28;20040;-57
2021/11/16 06:36:40;;;;;;;27.67;13.15;;;6.00;99.90;;;;;;5086260;28;20051;-58
2021/11/16 06:39:13;;;;;;;24.20;12.35;;;6.00;99.90;;;;;;5081538;28;20044;-58
2021/11/16 06:41:39;;;;;;;28.83;13.80;;;5.90;99.90;;;;;;5086801;28;20034;-59
2021/11/16 06:44:07;;;;;;;22.98;12.23;;;6.00;99.90;;;;;;5092669;28;20554;-59
2021/11/16 06:46:33;;;;;;;24.58;12.63;;;5.90;99.90;;;;;;5086783;28;20532;-59
2021/11/16 06:49:03;;;;;;;25.10;12.15;;;5.90;99.90;;;;;;5088072;28;20530;-59
2021/11/16 06:51:31;;;;;;;25.13;13.18;;;5.90;99.90;;;;;;5091595;28;20122;-58
2021/11/16 06:53:56;;;;;;;26.15;13.77;;;5.90;99.90;;;;;;5088861;28;20055;-58
2021/11/16 06:56:25;;;;;;;26.20;12.77;;;5.90;99.90;;;;;;5086961;28;20491;-54
2021/11/16 06:58:51;;;;;;;27.20;12.85;;;5.90;99.90;;;;;;5088806;28;20040;-59
2021/11/16 07:01:17;;;;;;;26.48;12.52;;;5.90;99.90;;;;;;5087966;28;20043;-58
2021/11/16 07:03:51;;;;;;;25.88;13.98;;;5.90;99.90;;;;;;5082252;28;20547;-57
2021/11/16 07:06:18;;;;;;;24.55;12.90;;;5.90;99.90;;;;;;5086150;28;20115;-59
2021/11/16 07:08:45;;;;;;;23.13;13.10;;;6.00;99.90;;;;;;5087794;28;20029;-59
2021/11/16 07:11:17;;;;;;;25.23;13.27;;;6.00;99.90;;;;;;5084666;28;20052;-59
2021/11/16 07:14:04;;;;;;;25.55;13.90;;;6.00;99.90;;;;;;5086451;28;20554;-59
2021/11/16 07:16:59;;;;;;;27.30;13.07;;;5.90;99.90;;;;;;5070965;28;20064;-58
2021/11/16 07:19:47;;;;;;;28.35;14.27;;;6.00;99.90;;;;;;5085098;28;20043;-57
2021/11/16 07:22:18;;;;;;;33.33;17.08;;;6.00;99.90;;;;;;5083729;28;20039;-59
2021/11/16 07:24:47;;;;;;;32.38;15.80;;;6.00;99.90;;;;;;5085431;28;20046;-58
2021/11/16 07:27:16;;;;;;;31.50;14.02;;;6.00;99.90;;;;;;5089382;28;20031;-60
2021/11/16 07:29:48;;;;;;;27.70;13.48;;;6.00;99.90;;;;;;5083443;28;20115;-59
2021/11/16 07:32:20;;;;;;;26.70;14.30;;;6.00;99.90;;;;;;5086308;28;20020;-54
2021/11/16 07:34:46;;;;;;;35.45;16.23;;;5.90;99.90;;;;;;5082955;28;20783;-59
2021/11/16 07:37:23;;;;;;;25.58;13.73;;;6.00;99.90;;;;;;5068886;28;20054;-60
2021/11/16 07:39:51;;;;;;;27.13;14.10;;;6.00;99.90;;;;;;5079642;28;20020;-58
2021/11/16 07:42:17;;;;;;;26.23;13.90;;;6.00;99.90;;;;;;5083642;28;20028;-58
2021/11/16 07:45:01;;;;;;;28.08;13.57;;;6.00;99.90;;;;;;5086655;28;20048;-58
2021/11/16 07:47:43;;;;;;;29.50;13.90;;;6.10;99.90;;;;;;5092622;28;20492;-58
2021/11/16 07:50:30;;;;;;;30.23;11.55;;;6.10;99.90;;;;;;5092389;28;20028;-59
2021/11/16 07:53:15;;;;;;;26.75;13.18;;;6.10;99.90;;;;;;5089098;28;20035;-58
2021/11/16 07:55:44;;;;;;;26.88;13.88;;;6.20;99.90;;;;;;5091773;28;20109;-56
2021/11/16 07:58:13;;;;;;;29.60;13.40;;;6.20;99.90;;;;;;5091618;28;20060;-59
2021/11/16 08:00:48;;;;;;;32.03;15.75;;;6.20;99.90;;;;;;5055050;28;20043;-59
2021/11/16 08:03:21;;;;;;;26.42;14.93;;;6.20;99.90;;;;;;5075049;28;20626;-58
2021/11/16 08:06:03;;;;;;;26.83;16.00;;;6.20;99.90;;;;;;5087517;28;20104;-58
2021/11/16 08:11:16;;;;;;;29.83;17.42;;;6.20;99.90;;;;;;5075280;28;20400;-60
2021/11/16 08:14:07;;;;;;;25.00;13.27;;;6.30;99.90;;;;;;5083636;28;20025;-59
2021/11/16 08:16:35;;;;;;;20.67;11.60;;;6.30;99.90;;;;;;5087309;28;20075;-57
2021/11/16 08:19:09;;;;;;;25.90;12.48;;;6.30;99.90;;;;;;5091695;28;20024;-58
2021/11/16 08:21:37;;;;;;;22.52;12.25;;;6.30;99.90;;;;;;5092239;28;20023;-59
2021/11/16 08:24:08;;;;;;;26.38;13.10;;;6.30;99.90;;;;;;5084177;28;20079;-59
2021/11/16 08:26:36;;;;;;;26.13;12.50;;;6.20;99.90;;;;;;5083779;28;20040;-57
2021/11/16 08:29:03;;;;;;;27.40;13.50;;;6.30;99.90;;;;;;5087690;28;20103;-59
2021/11/16 08:31:36;;;;;;;29.05;13.85;;;6.30;99.90;;;;;;5089377;28;20040;-59
2021/11/16 08:34:03;;;;;;;27.35;14.02;;;6.30;99.90;;;;;;5091595;28;20081;-58
2021/11/16 08:36:31;;;;;;;26.30;13.68;;;6.30;99.90;;;;;;5085885;28;20084;-58
2021/11/16 08:38:58;;;;;;;30.05;14.00;;;6.20;99.90;;;;;;5091917;28;20119;-57
2021/11/16 08:41:31;;;;;;;18.80;10.63;;;6.30;99.90;;;;;;5087546;28;20102;-59
2021/11/16 08:44:19;;;;;;;22.30;12.13;;;6.30;99.90;;;;;;5089813;28;20491;-58
2021/11/16 08:46:47;;;;;;;25.55;12.07;;;6.30;99.90;;;;;;5087341;28;20024;-58
2021/11/16 08:49:31;;;;;;;23.17;10.90;;;6.30;99.90;;;;;;5086655;28;20423;-59
2021/11/16 08:51:59;;;;;;;22.05;10.40;;;6.30;99.90;;;;;;5080843;28;20054;-58
2021/11/16 08:54:35;;;;;;;15.02;8.43;;;6.30;99.90;;;;;;5089309;28;20472;-57
2021/11/16 08:57:03;;;;;;;22.98;10.20;;;6.30;99.90;;;;;;5085133;28;20028;-59
2021/11/16 08:59:33;;;;;;;18.70;10.10;;;6.30;99.90;;;;;;5090554;28;20035;-59
2021/11/16 09:02:05;;;;;;;15.43;9.40;;;6.30;99.90;;;;;;5077249;28;20043;-58
2021/11/16 09:04:34;;;;;;;17.08;8.80;;;6.30;99.90;;;;;;5071391;28;20103;-59
2021/11/16 09:07:01;;;;;;;16.63;9.50;;;6.30;99.90;;;;;;5068685;28;20048;-53
2021/11/16 09:09:28;;;;;;;17.48;8.88;;;6.30;99.90;;;;;;5084684;28;20404;-57
2021/11/16 09:12:05;;;;;;;9.80;5.93;;;6.30;99.90;;;;;;5085388;28;20111;-58
2021/11/16 09:14:33;;;;;;;13.43;7.55;;;6.30;99.90;;;;;;5089801;28;20040;-59
2021/11/16 09:17:10;;;;;;;14.65;7.88;;;6.40;99.90;;;;;;5089733;28;20038;-58
2021/11/16 09:19:36;;;;;;;13.07;8.25;;;6.40;99.90;;;;;;5090030;28;20024;-57
2021/11/16 09:22:02;;;;;;;16.85;9.07;;;6.40;99.90;;;;;;5085118;28;20035;-58
2021/11/16 09:24:34;;;;;;;14.90;8.27;;;6.40;99.90;;;;;;5089881;28;20090;-56
2021/11/16 09:29:33;;;;;;;21.05;11.73;;;6.30;99.90;;;;;;5081243;28;20047;-58
2021/11/16 09:32:10;;;;;;;29.52;11.98;;;6.30;99.90;;;;;;5077027;28;20433;-58
2021/11/16 09:34:40;;;;;;;20.70;10.95;;;6.40;99.90;;;;;;5085665;28;20031;-59
2021/11/16 09:37:15;;;;;;;16.30;9.27;;;6.40;99.90;;;;;;5089030;28;20020;-59
2021/11/16 09:39:49;;;;;;;17.27;9.70;;;6.40;99.90;;;;;;5088098;28;20032;-57
2021/11/16 09:42:28;;;;;;;17.85;9.57;;;6.50;99.90;;;;;;5083162;28;20016;-59
2021/11/16 09:44:58;;;;;;;15.25;9.05;;;6.40;99.90;;;;;;5084422;28;20028;-57
2021/11/16 09:47:33;;;;;;;13.45;9.40;;;6.50;99.90;;;;;;5089775;28;20039;-58
2021/11/16 09:50:02;;;;;;;18.08;9.43;;;6.60;99.90;;;;;;5085932;28;20508;-56
2021/11/16 09:52:29;;;;;;;15.35;8.40;;;6.70;99.90;;;;;;5089634;28;20024;-57
2021/11/16 09:54:57;;;;;;;20.15;8.55;;;6.70;99.90;;;;;;5085291;28;20036;-53
2021/11/16 09:57:44;;;;;;;13.43;7.70;;;6.70;99.90;;;;;;5086632;28;20479;-59
2021/11/16 10:00:23;;;;;;;10.93;6.80;;;6.70;99.90;;;;;;5043653;28;20043;-58
2021/11/16 10:02:52;;;;;;;12.10;8.18;;;6.70;99.90;;;;;;5063910;28;20020;-59
2021/11/16 10:05:22;;;;;;;14.60;8.93;;;6.80;99.90;;;;;;5086072;28;20032;-59
2021/11/16 10:08:07;;;;;;;16.77;10.13;;;6.80;99.90;;;;;;5089271;28;20028;-58
2021/11/16 10:10:39;;;;;;;18.33;9.75;;;6.90;99.90;;;;;;5085747;28;20032;-57
2021/11/16 10:13:08;;;;;;;16.77;9.90;;;6.80;99.90;;;;;;5088611;28;20070;-57
2021/11/16 10:15:35;;;;;;;20.20;9.52;;;6.90;99.90;;;;;;5086978;28;20512;-58
2021/11/16 10:18:02;;;;;;;16.15;9.63;;;6.90;99.90;;;;;;5087319;28;20150;-58
2021/11/16 10:20:31;;;;;;;15.70;9.30;;;6.90;99.90;;;;;;5077439;28;20031;-56
2021/11/16 10:23:00;;;;;;;15.95;8.05;;;6.90;99.90;;;;;;5082490;28;20044;-58
2021/11/16 10:25:31;;;;;;;14.40;8.82;;;6.90;99.90;;;;;;5082175;28;20024;-59
2021/11/16 10:28:04;;;;;;;13.65;8.15;;;7.00;99.90;;;;;;5068173;28;20027;-58
2021/11/16 10:30:31;;;;;;;11.80;6.80;;;7.00;99.90;;;;;;5086589;28;20036;-59
2021/11/16 10:33:10;;;;;;;14.95;8.65;;;7.00;99.90;;;;;;5085459;28;20032;-57
2021/11/16 10:36:02;;;;;;;16.98;8.52;;;6.90;99.90;;;;;;5081782;28;20027;-58
2021/11/16 10:38:38;;;;;;;14.63;8.90;;;6.80;99.90;;;;;;5085323;28;20047;-59
2021/11/16 10:41:07;;;;;;;15.57;8.93;;;6.90;99.90;;;;;;5084431;28;20111;-58
2021/11/16 10:43:35;;;;;;;14.85;9.02;;;7.00;99.90;;;;;;5081911;28;20043;-57
2021/11/16 10:46:05;;;;;;;16.77;8.95;;;7.00;99.90;;;;;;5082525;28;20032;-58
2021/11/16 10:48:31;;;;;;;17.00;9.73;;;7.10;99.90;;;;;;5085915;28;20030;-59
2021/11/16 10:50:56;;;;;;;18.15;9.85;;;7.00;99.90;;;;;;5088765;28;20031;-58
2021/11/16 10:53:25;;;;;;;14.10;9.18;;;7.00;99.90;;;;;;5085326;28;20040;-56
2021/11/16 10:55:57;;;;;;;15.93;8.63;;;7.10;99.90;;;;;;5088452;28;20028;-59
2021/11/16 10:58:33;;;;;;;14.73;8.85;;;7.00;99.90;;;;;;5088384;28;20111;-57
2021/11/16 11:01:10;;;;;;;19.30;11.93;;;7.00;99.90;;;;;;5089034;28;20024;-59
2021/11/16 11:03:39;;;;;;;19.80;9.52;;;6.90;99.90;;;;;;5088398;28;20089;-59
2021/11/16 11:06:14;;;;;;;30.20;16.02;;;6.90;99.90;;;;;;5089578;28;20028;-57
2021/11/16 11:08:45;;;;;;;22.23;13.35;;;6.90;99.90;;;;;;5084751;28;20111;-58
2021/11/16 11:11:32;;;;;;;16.77;10.38;;;6.90;99.90;;;;;;5088512;28;20060;-59
2021/11/16 11:14:03;;;;;;;17.33;10.23;;;7.00;99.90;;;;;;5086854;28;20028;-59
2021/11/16 11:16:31;;;;;;;17.83;9.43;;;7.10;99.90;;;;;;5088931;28;20040;-57
2021/11/16 11:18:57;;;;;;;16.50;9.95;;;7.00;99.90;;;;;;5088290;28;20020;-56
2021/11/16 11:21:33;;;;;;;17.67;10.77;;;7.00;99.90;;;;;;5088311;28;20020;-58
2021/11/16 11:24:07;;;;;;;27.70;15.10;;;7.10;99.90;;;;;;5087838;28;20111;-59
2021/11/16 11:26:50;;;;;;;17.38;9.90;;;7.10;99.90;;;;;;5090396;28;20020;-56
2021/11/16 11:29:51;;;;;;;62.30;35.35;;;7.00;99.90;;;;;;5091418;28;20043;-59
2021/11/16 11:32:21;;;;;;;37.40;22.33;;;7.00;99.90;;;;;;5089691;28;20404;-58
2021/11/16 11:34:51;;;;;;;30.48;18.90;;;7.00;99.90;;;;;;5084717;28;20020;-55
2021/11/16 11:37:24;;;;;;;21.15;11.85;;;7.00;99.90;;;;;;5092196;28;20099;-57
2021/11/16 11:40:02;;;;;;;17.40;10.15;;;7.00;99.90;;;;;;5085285;28;20436;-55
2021/11/16 11:42:31;;;;;;;19.33;11.68;;;7.00;99.90;;;;;;5072344;28;20425;-59
2021/11/16 11:45:23;;;;;;;20.77;10.70;;;7.00;99.90;;;;;;5088865;28;20473;-49
2021/11/16 11:48:00;;;;;;;20.58;12.65;;;7.20;99.90;;;;;;5088363;28;20016;-59
2021/11/16 11:50:35;;;;;;;22.45;11.68;;;7.10;99.90;;;;;;5090385;28;20107;-58
2021/11/16 11:53:23;;;;;;;39.45;20.55;;;7.10;99.90;;;;;;5091574;28;20020;-57
2021/11/16 11:55:52;;;;;;;24.17;14.00;;;7.20;99.90;;;;;;5091494;28;20048;-58
2021/11/16 11:58:20;;;;;;;24.65;14.52;;;7.10;99.90;;;;;;5092240;28;20032;-57
2021/11/16 12:00:48;;;;;;;22.17;13.75;;;7.00;99.90;;;;;;5091470;28;20035;-59
2021/11/16 12:03:14;;;;;;;28.83;14.38;;;7.10;99.90;;;;;;5091212;28;20064;-59
2021/11/16 12:05:41;;;;;;;33.90;20.10;;;7.00;99.90;;;;;;5091909;28;20073;-58
2021/11/16 12:08:09;;;;;;;20.70;11.88;;;7.00;99.90;;;;;;5082140;28;20034;-59
2021/11/16 12:10:37;;;;;;;20.05;12.93;;;7.00;99.90;;;;;;5081671;28;20035;-58
2021/11/16 12:13:04;;;;;;;20.58;12.55;;;7.10;99.90;;;;;;5084902;28;20029;-58
2021/11/16 12:15:47;;;;;;;18.75;11.80;;;7.20;99.90;;;;;;5089171;28;20032;-56
2021/11/16 12:18:17;;;;;;;22.95;13.57;;;7.10;99.90;;;;;;5090375;28;20107;-58
2021/11/16 12:20:56;;;;;;;25.95;12.93;;;7.00;99.90;;;;;;5091010;28;20028;-58
2021/11/16 12:23:50;;;;;;;21.30;12.25;;;7.00;99.90;;;;;;5091213;28;20387;-55
2021/11/16 12:26:16;;;;;;;20.75;12.95;;;7.00;99.90;;;;;;5089656;28;20391;-57
2021/11/16 12:28:43;;;;;;;22.75;13.88;;;7.00;99.90;;;;;;5091270;28;20039;-59
2021/11/16 12:31:26;;;;;;;19.88;12.70;;;7.00;99.90;;;;;;5091732;28;20046;-58
2021/11/16 12:33:53;;;;;;;23.52;13.02;;;6.90;99.90;;;;;;5088748;28;20024;-58
2021/11/16 12:36:43;;;;;;;22.98;12.07;;;6.90;99.90;;;;;;5089790;28;20481;-59
2021/11/16 12:39:13;;;;;;;17.23;11.02;;;6.90;99.90;;;;;;5050451;28;20066;-58
2021/11/16 12:41:42;;;;;;;18.90;11.38;;;6.80;99.90;;;;;;5076469;28;20020;-57
2021/11/16 12:44:10;;;;;;;25.70;12.95;;;6.70;99.90;;;;;;5087362;28;20024;-54
2021/11/16 12:46:39;;;;;;;21.35;13.35;;;6.70;99.90;;;;;;5090304;28;20020;-57
2021/11/16 12:49:32;;;;;;;22.23;13.18;;;6.70;99.90;;;;;;5065837;28;20024;-58
2021/11/16 12:52:00;;;;;;;27.88;14.45;;;6.70;99.90;;;;;;5081318;28;20047;-55
2021/11/16 12:54:29;;;;;;;127.10;53.63;;;6.60;99.90;;;;;;5089453;28;20032;-59
2021/11/16 12:56:57;;;;;;;33.17;17.17;;;6.70;99.90;;;;;;5080459;28;20040;-57
2021/11/16 12:59:34;;;;;;;24.20;14.95;;;6.70;99.90;;;;;;5065542;28;20080;-58
2021/11/16 13:02:05;;;;;;;39.88;21.55;;;6.60;99.90;;;;;;5083779;28;20036;-58
2021/11/16 13:04:50;;;;;;;28.10;16.67;;;6.60;99.90;;;;;;5080906;28;20044;-58
2021/11/16 13:07:19;;;;;;;19.98;11.82;;;6.60;99.90;;;;;;5081421;28;20043;-59